createdAt,value
2022-09-03T00:01:59.365Z,99.90
2022-09-03T00:04:44.604Z,99.90
2022-09-03T00:07:33.454Z,99.90
2022-09-03T00:10:08.968Z,99.90
2022-09-03T00:12:42.973Z,99.90
2022-09-03T00:15:13.016Z,99.90
2022-09-03T00:18:03.074Z,99.90
2022-09-03T00:20:43.422Z,99.90
2022-09-03T00:23:23.164Z,99.90
2022-09-03T00:25:59.107Z,99.90
2022-09-03T00:28:47.424Z,99.90
2022-09-03T00:31:34.642Z,99.90
2022-09-03T00:34:27.811Z,99.90
2022-09-03T00:36:56.227Z,99.90
2022-09-03T00:39:27.079Z,99.90
2022-09-03T00:42:08.836Z,99.90
2022-09-03T00:44:50.301Z,99.90
2022-09-03T00:47:34.695Z,99.90
2022-09-03T00:50:15.372Z,99.90
2022-09-03T00:53:01.016Z,99.90
2022-09-03T00:55:39.133Z,99.90
2022-09-03T00:58:26.126Z,99.90
2022-09-03T01:00:55.169Z,99.90
2022-09-03T01:03:54.593Z,99.90
2022-09-03T01:06:49.492Z,99.90
2022-09-03T01:09:29.747Z,99.90
2022-09-03T01:12:17.703Z,99.90
2022-09-03T01:14:52.702Z,99.90
2022-09-03T01:17:34.750Z,99.90
2022-09-03T01:20:27.139Z,99.90
2022-09-03T01:22:57.648Z,99.90
2022-09-03T01:25:37.552Z,99.90
2022-09-03T01:28:20.654Z,99.90
2022-09-03T01:30:53.924Z,99.90
2022-09-03T01:33:38.604Z,99.90
2022-09-03T01:36:24.270Z,99.90
2022-09-03T01:39:05.468Z,99.90
2022-09-03T01:42:04.321Z,99.90
2022-09-03T01:45:02.045Z,99.90
2022-09-03T01:47:38.234Z,99.90
2022-09-03T01:50:18.214Z,99.90
2022-09-03T01:53:00.828Z,99.90
2022-09-03T01:55:52.160Z,99.90
2022-09-03T01:58:37.408Z,99.90
2022-09-03T02:01:18.950Z,99.90
2022-09-03T02:03:48.479Z,99.90
2022-09-03T02:06:19.737Z,99.90
2022-09-03T02:08:48.871Z,99.90
2022-09-03T02:11:17.317Z,99.90
2022-09-03T02:13:51.542Z,99.90
2022-09-03T02:16:24.708Z,99.90
2022-09-03T02:18:58.904Z,99.90
2022-09-03T02:21:33.104Z,99.90
2022-09-03T02:24:01.611Z,99.90
2022-09-03T02:26:29.422Z,99.90
2022-09-03T02:28:58.280Z,99.90
2022-09-03T02:31:27.383Z,99.90
2022-09-03T02:33:58.216Z,99.90
2022-09-03T02:36:32.490Z,99.90
2022-09-03T02:39:01.538Z,99.90
2022-09-03T02:41:29.367Z,99.90
2022-09-03T02:44:06.581Z,99.90
2022-09-03T02:46:50.684Z,99.90
2022-09-03T02:49:18.809Z,99.90
2022-09-03T02:51:47.404Z,99.90
2022-09-03T02:54:20.698Z,99.90
2022-09-03T02:56:49.896Z,99.90
2022-09-03T02:59:18.176Z,99.90
2022-09-03T03:01:46.612Z,99.90
2022-09-03T03:04:15.650Z,99.90
2022-09-03T03:06:47.626Z,99.90
2022-09-03T03:09:15.570Z,99.90
2022-09-03T03:11:44.565Z,99.90
2022-09-03T03:14:12.126Z,99.90
2022-09-03T03:16:39.873Z,99.90
2022-09-03T03:19:11.035Z,99.90
2022-09-03T03:21:39.349Z,99.90
2022-09-03T03:24:08.345Z,99.90
2022-09-03T03:26:36.121Z,99.90
2022-09-03T03:29:07.753Z,99.90
2022-09-03T03:31:37.132Z,99.90
2022-09-03T03:34:05.441Z,99.90
2022-09-03T03:36:34.363Z,99.90
2022-09-03T03:39:03.215Z,99.90
2022-09-03T03:41:33.582Z,99.90
2022-09-03T03:44:04.669Z,99.90
2022-09-03T03:46:37.602Z,99.90
2022-09-03T03:49:07.438Z,99.90
2022-09-03T03:51:37.608Z,99.90
2022-09-03T03:54:06.076Z,99.90
2022-09-03T03:56:37.231Z,99.90
2022-09-03T03:59:05.344Z,99.90
2022-09-03T04:01:34.184Z,99.90
2022-09-03T04:04:02.683Z,99.90
2022-09-03T04:06:30.756Z,99.90
2022-09-03T04:08:59.033Z,99.90
2022-09-03T04:11:27.300Z,99.90
2022-09-03T04:13:55.290Z,99.90
2022-09-03T04:16:28.633Z,99.90
2022-09-03T04:19:00.309Z,99.90
2022-09-03T04:21:31.110Z,99.90
2022-09-03T04:23:59.392Z,99.90
2022-09-03T04:26:33.877Z,99.90
2022-09-03T04:29:05.850Z,99.90
2022-09-03T04:31:38.147Z,99.90
2022-09-03T04:34:10.270Z,99.90
2022-09-03T04:36:38.968Z,99.90
2022-09-03T04:39:06.763Z,99.90
2022-09-03T04:41:35.366Z,99.90
2022-09-03T04:44:03.603Z,99.90
2022-09-03T04:46:34.374Z,99.90
2022-09-03T04:49:03.113Z,99.90
2022-09-03T04:51:31.829Z,99.90
2022-09-03T04:54:01.491Z,99.90
2022-09-03T04:56:34.489Z,99.90
2022-09-03T04:59:09.335Z,99.90
2022-09-03T05:01:39.822Z,99.90
2022-09-03T05:04:08.579Z,99.90
2022-09-03T05:06:37.448Z,99.90
2022-09-03T05:09:06.249Z,99.90
2022-09-03T05:11:33.821Z,99.90
2022-09-03T05:14:01.651Z,99.90
2022-09-03T05:16:31.202Z,99.90
2022-09-03T05:19:01.503Z,99.90
2022-09-03T05:21:29.996Z,99.90
2022-09-03T05:23:59.355Z,99.90
2022-09-03T05:26:30.518Z,99.90
2022-09-03T05:29:01.205Z,99.90
2022-09-03T05:31:32.142Z,99.90
2022-09-03T05:34:03.176Z,99.90
2022-09-03T05:36:37.710Z,99.90
2022-09-03T05:39:06.572Z,99.90
2022-09-03T05:41:35.360Z,99.90
2022-09-03T05:44:04.184Z,99.90
2022-09-03T05:46:33.991Z,99.90
2022-09-03T05:49:03.809Z,99.90
2022-09-03T05:51:32.961Z,99.90
2022-09-03T05:54:02.297Z,99.90
2022-09-03T05:56:32.253Z,99.90
2022-09-03T05:59:02.193Z,99.90
2022-09-03T06:01:33.074Z,99.90
2022-09-03T06:04:12.640Z,99.90
2022-09-03T06:06:46.057Z,99.90
2022-09-03T06:09:17.885Z,99.90
2022-09-03T06:11:46.957Z,99.90
2022-09-03T06:14:15.596Z,99.90
2022-09-03T06:16:45.506Z,99.90
2022-09-03T06:19:14.390Z,99.90
2022-09-03T06:21:44.063Z,99.90
2022-09-03T06:24:28.295Z,99.90
2022-09-03T06:26:59.447Z,99.90
2022-09-03T06:29:28.509Z,99.90
2022-09-03T06:31:56.949Z,99.90
2022-09-03T06:34:26.958Z,99.90
2022-09-03T06:39:23.647Z,99.90
2022-09-03T06:41:52.351Z,99.90
2022-09-03T06:44:27.572Z,99.90
2022-09-03T06:46:55.399Z,99.90
2022-09-03T06:49:24.232Z,99.90
2022-09-03T06:51:52.296Z,99.90
2022-09-03T06:54:20.143Z,99.90
2022-09-03T06:56:47.823Z,99.90
2022-09-03T06:59:15.561Z,99.90
2022-09-03T07:01:46.250Z,99.90
2022-09-03T07:04:20.343Z,99.90
2022-09-03T07:06:48.562Z,99.90
2022-09-03T07:09:18.391Z,99.90
2022-09-03T07:11:49.905Z,99.90
2022-09-03T07:14:19.373Z,99.90
2022-09-03T07:16:51.367Z,99.90
2022-09-03T07:19:19.248Z,99.90
2022-09-03T07:21:50.058Z,99.90
2022-09-03T07:24:22.612Z,99.90
2022-09-03T07:26:51.894Z,99.90
2022-09-03T07:29:20.654Z,99.90
2022-09-03T07:31:51.952Z,99.90
2022-09-03T07:34:22.028Z,99.90
2022-09-03T07:36:52.050Z,99.90
2022-09-03T07:39:20.150Z,99.90
2022-09-03T07:41:48.313Z,99.90
2022-09-03T07:44:20.173Z,99.90
2022-09-03T07:46:50.923Z,99.90
2022-09-03T07:49:22.234Z,99.90
2022-09-03T07:51:52.477Z,99.90
2022-09-03T07:54:22.015Z,99.90
2022-09-03T07:56:49.874Z,99.90
2022-09-03T07:59:17.581Z,99.90
2022-09-03T08:01:45.332Z,99.90
2022-09-03T08:04:13.560Z,99.90
2022-09-03T08:06:41.079Z,99.90
2022-09-03T08:09:11.708Z,99.90
2022-09-03T08:11:41.792Z,99.90
2022-09-03T08:14:12.320Z,99.90
2022-09-03T08:16:42.525Z,99.90
2022-09-03T08:19:12.036Z,99.90
2022-09-03T08:21:43.233Z,99.90
2022-09-03T08:24:12.447Z,99.90
2022-09-03T08:26:51.161Z,99.90
2022-09-03T08:29:20.885Z,99.90
2022-09-03T08:31:48.839Z,99.90
2022-09-03T08:34:17.806Z,99.90
2022-09-03T08:36:47.229Z,99.90
2022-09-03T08:39:15.506Z,99.90
2022-09-03T08:42:19.111Z,99.90
2022-09-03T08:44:52.571Z,99.90
2022-09-03T08:47:29.983Z,99.90
2022-09-03T08:50:12.988Z,99.90
2022-09-03T08:52:51.314Z,99.90
2022-09-03T08:55:56.264Z,99.90
2022-09-03T08:58:29.822Z,99.90
2022-09-03T09:01:09.290Z,99.90
2022-09-03T09:03:46.071Z,99.90
2022-09-03T09:06:19.977Z,99.90
2022-09-03T09:09:10.859Z,99.90
2022-09-03T09:11:47.452Z,99.90
2022-09-03T09:14:31.765Z,99.90
2022-09-03T09:17:27.995Z,99.90
2022-09-03T09:20:07.581Z,99.90
2022-09-03T09:22:47.178Z,99.90
2022-09-03T09:25:20.165Z,99.90
2022-09-03T09:28:01.553Z,99.90
2022-09-03T09:30:31.596Z,99.90
2022-09-03T09:33:00.797Z,99.90
2022-09-03T09:35:28.459Z,99.90
2022-09-03T09:37:58.778Z,99.90
2022-09-03T09:40:32.253Z,99.90
2022-09-03T09:43:13.397Z,99.90
2022-09-03T09:45:43.741Z,99.90
2022-09-03T09:48:34.410Z,99.90
2022-09-03T09:51:12.331Z,99.90
2022-09-03T09:53:41.503Z,99.90
2022-09-03T09:56:10.016Z,99.90
2022-09-03T09:58:38.096Z,99.90
2022-09-03T10:01:13.506Z,99.90
2022-09-03T10:03:56.241Z,99.90
2022-09-03T10:06:43.400Z,99.90
2022-09-03T10:09:15.192Z,99.90
2022-09-03T10:12:08.137Z,99.90
2022-09-03T10:14:41.316Z,99.90
2022-09-03T10:17:19.875Z,99.90
2022-09-03T10:20:22.838Z,99.90
2022-09-03T10:23:16.391Z,99.90
2022-09-03T10:26:07.835Z,99.90
2022-09-03T10:28:42.938Z,99.90
2022-09-03T10:31:41.500Z,99.90
2022-09-03T10:34:37.654Z,99.90
2022-09-03T10:37:18.040Z,99.90
2022-09-03T10:40:15.887Z,99.90
2022-09-03T10:43:08.311Z,99.90
2022-09-03T10:45:59.428Z,99.90
2022-09-03T10:48:50.807Z,99.90
2022-09-03T10:51:24.545Z,99.90
2022-09-03T10:54:17.486Z,99.90
2022-09-03T10:56:57.596Z,99.90
2022-09-03T10:59:51.602Z,99.90
2022-09-03T11:02:29.917Z,99.90
2022-09-03T11:05:16.703Z,99.90
2022-09-03T11:07:54.699Z,99.90
2022-09-03T11:10:30.997Z,99.90
2022-09-03T11:13:02.078Z,99.90
2022-09-03T11:15:56.947Z,99.90
2022-09-03T11:18:33.997Z,99.90
2022-09-03T11:21:08.873Z,99.90
2022-09-03T11:23:44.460Z,99.90
2022-09-03T11:26:15.686Z,99.90
2022-09-03T11:29:05.923Z,99.90
2022-09-03T11:32:08.691Z,99.90
2022-09-03T11:34:47.606Z,99.90
2022-09-03T11:37:20.343Z,99.90
2022-09-03T11:40:05.952Z,99.90
2022-09-03T11:42:41.211Z,99.90
2022-09-03T11:45:15.050Z,99.90
2022-09-03T11:47:45.039Z,99.90
2022-09-03T11:50:28.018Z,99.90
2022-09-03T11:53:24.474Z,99.90
2022-09-03T11:56:03.048Z,99.90
2022-09-03T11:58:39.184Z,99.90
2022-09-03T12:01:18.143Z,99.90
2022-09-03T12:04:07.994Z,99.90
2022-09-03T12:07:04.219Z,99.90
2022-09-03T12:09:57.836Z,99.90
2022-09-03T12:12:49.120Z,99.90
2022-09-03T12:15:28.652Z,99.90
2022-09-03T12:18:22.667Z,99.90
2022-09-03T12:20:53.571Z,99.90
2022-09-03T12:23:58.263Z,99.90
2022-09-03T12:26:28.429Z,99.90
2022-09-03T12:28:59.973Z,99.90
2022-09-03T12:31:31.186Z,99.90
2022-09-03T12:34:01.897Z,99.90
2022-09-03T12:36:46.721Z,99.90
2022-09-03T12:42:22.489Z,99.90
2022-09-03T12:44:50.402Z,99.90
2022-09-03T12:47:38.270Z,99.90
2022-09-03T12:50:12.919Z,99.90
2022-09-03T12:55:47.690Z,99.90
2022-09-03T12:58:42.056Z,99.90
2022-09-03T13:01:16.681Z,99.90
2022-09-03T13:04:04.027Z,99.90
2022-09-03T13:06:43.268Z,99.90
2022-09-03T13:09:11.651Z,99.90
2022-09-03T13:11:39.655Z,99.90
2022-09-03T13:14:11.511Z,99.90
2022-09-03T13:16:54.425Z,99.90
2022-09-03T13:19:41.657Z,99.90
2022-09-03T13:22:52.116Z,99.90
2022-09-03T13:25:49.438Z,99.90
2022-09-03T13:28:49.783Z,99.90
2022-09-03T13:31:29.007Z,99.90
2022-09-03T13:34:07.120Z,99.90
2022-09-03T13:36:51.675Z,99.90
2022-09-03T13:39:38.728Z,99.90
2022-09-03T13:42:42.068Z,99.90
2022-09-03T13:45:38.793Z,99.90
2022-09-03T13:48:39.818Z,99.90
2022-09-03T13:51:16.561Z,98.90
2022-09-03T13:53:49.032Z,99.30
2022-09-03T13:56:36.006Z,99.30
2022-09-03T13:59:20.075Z,99.50
2022-09-03T14:02:19.187Z,98.10
2022-09-03T14:05:10.195Z,97.80
2022-09-03T14:07:57.697Z,98.10
2022-09-03T14:10:50.594Z,98.50
2022-09-03T14:13:52.916Z,99.10
2022-09-03T14:16:48.175Z,98.50
2022-09-03T14:19:34.377Z,98.60
2022-09-03T14:22:27.112Z,99.30
2022-09-03T14:24:58.923Z,99.10
2022-09-03T14:27:31.514Z,98.80
2022-09-03T14:30:10.090Z,99.40
2022-09-03T14:32:42.753Z,98.60
2022-09-03T14:35:22.519Z,98.60
2022-09-03T14:38:16.155Z,97.70
2022-09-03T14:41:20.893Z,97.20
2022-09-03T14:44:13.528Z,97.40
2022-09-03T14:46:59.282Z,97.80
2022-09-03T14:49:47.187Z,97.70
2022-09-03T14:52:32.711Z,97.70
2022-09-03T14:55:23.018Z,97.60
2022-09-03T14:58:09.963Z,97.10
2022-09-03T15:00:51.312Z,97.20
2022-09-03T15:03:47.400Z,97.20
2022-09-03T15:06:31.167Z,97.70
2022-09-03T15:09:20.015Z,98.00
2022-09-03T15:12:14.008Z,98.10
2022-09-03T15:15:01.644Z,98.40
2022-09-03T15:17:43.151Z,98.20
2022-09-03T15:20:14.319Z,98.50
2022-09-03T15:22:54.807Z,98.20
2022-09-03T15:25:44.296Z,98.80
2022-09-03T15:28:34.903Z,98.80
2022-09-03T15:31:29.850Z,99.00
2022-09-03T15:34:05.239Z,99.10
2022-09-03T15:36:43.545Z,98.80
2022-09-03T15:39:35.278Z,99.40
2022-09-03T15:42:27.361Z,99.20
2022-09-03T15:45:01.867Z,99.40
2022-09-03T15:47:50.846Z,99.50
2022-09-03T15:50:40.275Z,99.70
2022-09-03T15:53:27.136Z,99.90
2022-09-03T15:56:21.421Z,99.90
2022-09-03T15:59:40.724Z,99.90
2022-09-03T16:02:13.509Z,99.90
2022-09-03T16:05:06.254Z,99.90
2022-09-03T16:07:37.413Z,99.90
2022-09-03T16:10:25.417Z,99.90
2022-09-03T16:13:21.363Z,99.90
2022-09-03T16:15:59.911Z,99.90
2022-09-03T16:18:58.653Z,99.90
2022-09-03T16:21:37.442Z,99.90
2022-09-03T16:24:24.493Z,99.90
2022-09-03T16:27:05.660Z,99.90
2022-09-03T16:29:38.162Z,99.90
2022-09-03T16:32:12.590Z,99.90
2022-09-03T16:34:58.573Z,99.90
2022-09-03T16:37:40.236Z,99.90
2022-09-03T16:40:42.440Z,99.90
2022-09-03T16:43:42.607Z,99.90
2022-09-03T16:46:24.505Z,99.90
2022-09-03T16:49:19.179Z,99.90
2022-09-03T16:52:10.617Z,99.90
2022-09-03T16:55:09.734Z,99.90
2022-09-03T16:57:50.720Z,99.90
2022-09-03T17:00:21.565Z,99.90
2022-09-03T17:03:26.522Z,99.90
2022-09-03T17:06:02.648Z,99.90
2022-09-03T17:09:07.538Z,99.90
2022-09-03T17:11:53.513Z,99.90
2022-09-03T17:14:21.144Z,99.90
2022-09-03T17:17:16.525Z,99.90
2022-09-03T17:20:14.991Z,99.90
2022-09-03T17:23:06.574Z,99.90
2022-09-03T17:25:38.075Z,99.90
2022-09-03T17:28:38.266Z,99.90
2022-09-03T17:31:27.846Z,99.90
2022-09-03T17:34:14.455Z,99.90
2022-09-03T17:37:05.221Z,99.90
2022-09-03T17:39:52.770Z,99.90
2022-09-03T17:42:33.353Z,99.90
2022-09-03T17:45:19.688Z,99.90
2022-09-03T17:48:22.199Z,99.90
2022-09-03T17:51:06.601Z,99.90
2022-09-03T17:54:01.234Z,99.90
2022-09-03T17:56:54.473Z,99.90
2022-09-03T17:59:45.538Z,99.90
2022-09-03T18:02:31.384Z,99.90
2022-09-03T18:05:27.310Z,99.90
2022-09-03T18:08:07.489Z,99.90
2022-09-03T18:10:44.268Z,99.90
2022-09-03T18:13:55.417Z,99.90
2022-09-03T18:16:33.600Z,99.90
2022-09-03T18:19:53.681Z,99.90
2022-09-03T18:22:48.895Z,99.90
2022-09-03T18:25:38.306Z,99.90
2022-09-03T18:28:28.746Z,99.90
2022-09-03T18:31:15.449Z,99.90
2022-09-03T18:34:01.801Z,99.90
2022-09-03T18:36:50.944Z,99.90
2022-09-03T18:39:47.884Z,99.90
2022-09-03T19:35:28.917Z,99.90
2022-09-03T19:38:59.276Z,99.90
2022-09-03T19:42:17.909Z,99.90
2022-09-03T19:45:34.419Z,99.90
2022-09-03T19:48:37.877Z,99.90
2022-09-03T19:51:37.713Z,99.90
2022-09-03T19:54:26.724Z,99.90
2022-09-03T19:57:17.268Z,99.90
2022-09-03T20:00:07.769Z,99.90
2022-09-03T20:03:00.465Z,99.90
2022-09-03T20:05:47.173Z,99.90
2022-09-03T20:08:35.884Z,99.90
2022-09-03T20:11:05.959Z,99.90
2022-09-03T20:13:58.854Z,99.90
2022-09-03T20:16:38.723Z,99.90
2022-09-03T20:19:33.506Z,99.90
2022-09-03T20:22:07.163Z,99.90
2022-09-03T20:24:56.578Z,99.90
2022-09-03T20:27:55.340Z,99.90
2022-09-03T20:30:32.931Z,99.90
2022-09-03T20:33:14.818Z,99.90
2022-09-03T20:36:07.397Z,99.90
2022-09-03T20:39:03.943Z,99.90
2022-09-03T20:41:52.848Z,99.90
2022-09-03T20:44:32.151Z,99.90
2022-09-03T20:47:41.813Z,99.90
2022-09-03T20:50:23.248Z,99.90
2022-09-03T20:53:03.143Z,99.90
2022-09-03T20:55:41.923Z,99.90
2022-09-03T20:58:22.859Z,99.90
2022-09-03T21:01:07.257Z,99.90
2022-09-03T21:03:55.713Z,99.90
2022-09-03T21:06:42.838Z,99.90
2022-09-03T21:09:29.239Z,99.90
2022-09-03T21:12:32.877Z,99.90
2022-09-03T21:15:16.346Z,99.90
2022-09-03T21:18:00.796Z,99.90
2022-09-03T21:20:40.877Z,99.90
2022-09-03T21:23:34.535Z,99.90
2022-09-03T21:26:31.358Z,99.90
2022-09-03T21:29:22.164Z,99.90
2022-09-03T21:32:06.249Z,99.90
2022-09-03T21:34:42.300Z,99.90
2022-09-03T21:37:12.918Z,99.90
2022-09-03T21:39:40.574Z,99.90
2022-09-03T21:42:17.786Z,99.90
2022-09-03T21:44:55.950Z,99.90
2022-09-03T21:47:28.227Z,99.90
2022-09-03T21:52:37.662Z,99.90
2022-09-03T21:55:49.500Z,99.90
2022-09-03T22:01:12.911Z,99.90
2022-09-03T22:03:43.149Z,99.90
2022-09-03T22:06:19.109Z,99.90
2022-09-03T22:09:13.933Z,99.90
2022-09-03T22:11:44.977Z,99.90
2022-09-03T22:14:16.256Z,99.90
2022-09-03T22:16:54.845Z,99.90
2022-09-03T22:19:28.532Z,99.90
2022-09-03T22:22:00.348Z,99.90
2022-09-03T22:24:42.707Z,99.90
2022-09-03T22:27:47.750Z,99.90
2022-09-03T22:30:22.599Z,99.90
2022-09-03T22:33:19.617Z,99.90
2022-09-03T22:36:04.522Z,99.90
2022-09-03T22:38:59.466Z,99.90
2022-09-03T22:41:59.547Z,99.90
2022-09-03T22:44:42.773Z,99.90
2022-09-03T22:47:41.947Z,99.90
2022-09-03T22:50:10.219Z,99.90
2022-09-03T22:52:49.487Z,99.90
2022-09-03T22:55:25.694Z,99.90
2022-09-03T22:58:09.028Z,99.90
2022-09-03T23:00:58.048Z,99.90
2022-09-03T23:03:34.033Z,99.90
2022-09-03T23:06:07.957Z,99.90
2022-09-03T23:08:54.678Z,99.90
2022-09-03T23:11:27.403Z,99.90
2022-09-03T23:14:06.322Z,99.90
2022-09-03T23:16:56.631Z,99.90
2022-09-03T23:19:39.542Z,99.90
2022-09-03T23:22:13.414Z,99.90
2022-09-03T23:24:48.077Z,99.90
2022-09-03T23:27:25.321Z,99.90
2022-09-03T23:29:56.592Z,99.90
2022-09-03T23:32:27.308Z,99.90
2022-09-03T23:35:07.472Z,99.90
2022-09-03T23:40:48.874Z,99.90
2022-09-03T23:43:38.922Z,99.90
2022-09-03T23:46:25.608Z,99.90
2022-09-03T23:49:21.934Z,99.90
2022-09-03T23:51:53.817Z,99.90
2022-09-03T23:54:40.787Z,99.90
2022-09-03T23:57:41.291Z,99.90
